QFA930 PAJN-PANC
Flight info
| Callsign | QFA930 |
|---|---|
| Flight time | 1h 28m |
| Altitude | 36000 |
| Route | ASORT3 ASORT J541 YAK J501 JOH PTERS3 |
| Aircraft | B738/M-L/LB1 |
Departure
| Time | 2026-04-21 09:46 |
|---|---|
| Airport | Juneau International Airport (PAJN) |
Arrival
| Time | 2026-04-21 11:14 |
|---|---|
| Airport | Ted Stevens Anchorage International Airport (PANC) |
| Time | Latitude | Longitude | Altitude | Speed | Heading |
|---|---|---|---|---|---|
| 2026-04-21 09:18 | 58.35845 | -134.58438 | 30 ft | 0 kts | 35° |
| 2026-04-21 09:33 | 58.35838 | -134.58448 | 30 ft | 2 kts | 37° |
| 2026-04-21 09:33 | 58.35825 | -134.58472 | 30 ft | 3 kts | 52° |
| 2026-04-21 09:33 | 58.35814 | -134.58505 | 30 ft | 3 kts | 68° |
| 2026-04-21 09:33 | 58.35809 | -134.58542 | 30 ft | 3 kts | 83° |
| 2026-04-21 09:34 | 58.35809 | -134.58581 | 30 ft | 3 kts | 96° |
| 2026-04-21 09:34 | 58.35813 | -134.58619 | 30 ft | 3 kts | 108° |
| 2026-04-21 09:34 | 58.35818 | -134.58643 | 30 ft | 0 kts | 115° |
| 2026-04-21 09:38 | 58.35817 | -134.58636 | 30 ft | 3 kts | 117° |
| 2026-04-21 09:38 | 58.35778 | -134.58587 | 30 ft | 11 kts | 152° |
| 2026-04-21 09:39 | 58.35726 | -134.58429 | 30 ft | 18 kts | 105° |
| 2026-04-21 09:39 | 58.35689 | -134.58166 | 30 ft | 23 kts | 104° |
| 2026-04-21 09:39 | 58.35643 | -134.57863 | 30 ft | 25 kts | 106° |
| 2026-04-21 09:39 | 58.35595 | -134.57515 | 30 ft | 29 kts | 104° |
| 2026-04-21 09:40 | 58.35543 | -134.57128 | 30 ft | 31 kts | 103° |
| 2026-04-21 09:40 | 58.35486 | -134.56727 | 30 ft | 32 kts | 106° |
| 2026-04-21 09:40 | 58.35428 | -134.56316 | 30 ft | 32 kts | 105° |
| 2026-04-21 09:40 | 58.35376 | -134.55938 | 30 ft | 27 kts | 105° |
| 2026-04-21 09:41 | 58.35340 | -134.55678 | 30 ft | 13 kts | 105° |
| 2026-04-21 09:41 | 58.35309 | -134.55559 | 30 ft | 10 kts | 137° |
| 2026-04-21 09:41 | 58.35290 | -134.55535 | 30 ft | 0 kts | 157° |
| 2026-04-21 09:41 | 58.35289 | -134.55534 | 30 ft | 1 kts | 157° |
| 2026-04-21 09:42 | 58.35266 | -134.55520 | 30 ft | 6 kts | 169° |
| 2026-04-21 09:42 | 58.35213 | -134.55531 | 30 ft | 10 kts | 222° |
| 2026-04-21 09:42 | 58.35213 | -134.55611 | 30 ft | 0 kts | 284° |
| 2026-04-21 09:45 | 58.35220 | -134.55665 | 30 ft | 23 kts | 285° |
| 2026-04-21 09:45 | 58.35319 | -134.56376 | 30 ft | 86 kts | 285° |
| 2026-04-21 09:46 | 58.35522 | -134.57826 | 30 ft | 139 kts | 285° |
| 2026-04-21 09:46 | 58.35803 | -134.59787 | 315 ft | 157 kts | 285° |
| 2026-04-21 09:46 | 58.36014 | -134.61844 | 927 ft | 162 kts | 276° |
| 2026-04-21 09:46 | 58.36025 | -134.64047 | 1451 ft | 173 kts | 269° |
| 2026-04-21 09:47 | 58.35970 | -134.66431 | 1990 ft | 187 kts | 268° |
| 2026-04-21 09:47 | 58.35917 | -134.69018 | 2604 ft | 204 kts | 270° |
| 2026-04-21 09:47 | 58.35908 | -134.71816 | 3278 ft | 220 kts | 271° |
| 2026-04-21 09:47 | 58.35945 | -134.74840 | 3980 ft | 236 kts | 271° |
| 2026-04-21 09:48 | 58.35979 | -134.78065 | 4764 ft | 247 kts | 270° |
| 2026-04-21 09:48 | 58.35992 | -134.81374 | 5676 ft | 253 kts | 269° |
| 2026-04-21 09:48 | 58.36004 | -134.84661 | 6734 ft | 253 kts | 269° |
| 2026-04-21 09:48 | 58.36024 | -134.88045 | 7628 ft | 257 kts | 270° |
| 2026-04-21 09:49 | 58.36058 | -134.91460 | 8568 ft | 260 kts | 269° |
| 2026-04-21 09:49 | 58.36089 | -134.94925 | 9482 ft | 263 kts | 270° |
| 2026-04-21 09:49 | 58.36111 | -134.98422 | 10300 ft | 271 kts | 270° |
| 2026-04-21 09:49 | 58.36128 | -135.02124 | 10765 ft | 288 kts | 270° |
| 2026-04-21 09:50 | 58.36143 | -135.06031 | 11362 ft | 300 kts | 270° |
| 2026-04-21 09:50 | 58.36158 | -135.10017 | 12236 ft | 302 kts | 271° |
| 2026-04-21 09:50 | 58.36173 | -135.14022 | 13153 ft | 303 kts | 270° |
| 2026-04-21 09:50 | 58.36186 | -135.18041 | 14059 ft | 304 kts | 270° |
| 2026-04-21 09:51 | 58.36196 | -135.22080 | 14961 ft | 306 kts | 270° |
| 2026-04-21 09:51 | 58.36207 | -135.26140 | 15869 ft | 308 kts | 270° |
| 2026-04-21 09:51 | 58.36215 | -135.30170 | 16746 ft | 309 kts | 269° |
| 2026-04-21 09:51 | 58.36219 | -135.34272 | 17642 ft | 310 kts | 269° |
| 2026-04-21 09:52 | 58.36223 | -135.38395 | 18515 ft | 313 kts | 269° |
| 2026-04-21 09:52 | 58.36229 | -135.42553 | 19329 ft | 315 kts | 269° |
| 2026-04-21 09:52 | 58.36236 | -135.46743 | 20122 ft | 319 kts | 269° |
| 2026-04-21 09:52 | 58.36246 | -135.50982 | 20885 ft | 322 kts | 269° |
| 2026-04-21 09:53 | 58.36259 | -135.55265 | 21617 ft | 325 kts | 269° |
| 2026-04-21 09:53 | 58.36270 | -135.59593 | 22319 ft | 328 kts | 269° |
| 2026-04-21 09:53 | 58.36276 | -135.63963 | 22993 ft | 331 kts | 269° |
| 2026-04-21 09:53 | 58.36278 | -135.68372 | 23647 ft | 335 kts | 269° |
| 2026-04-21 09:54 | 58.36281 | -135.72822 | 24283 ft | 338 kts | 269° |
| 2026-04-21 09:54 | 58.36292 | -135.77321 | 24873 ft | 342 kts | 271° |
| 2026-04-21 09:54 | 58.36658 | -135.81816 | 25499 ft | 347 kts | 283° |
| 2026-04-21 09:54 | 58.37601 | -135.86098 | 26087 ft | 356 kts | 296° |
| 2026-04-21 09:55 | 58.38889 | -135.90180 | 26554 ft | 362 kts | 297° |
| 2026-04-21 09:55 | 58.40228 | -135.94294 | 27009 ft | 367 kts | 298° |
| 2026-04-21 09:55 | 58.41573 | -135.98391 | 27474 ft | 371 kts | 298° |
| 2026-04-21 09:55 | 58.42944 | -136.02596 | 27921 ft | 375 kts | 298° |
| 2026-04-21 09:56 | 58.44319 | -136.06855 | 28378 ft | 378 kts | 298° |
| 2026-04-21 09:56 | 58.45699 | -136.11161 | 28803 ft | 382 kts | 298° |
| 2026-04-21 09:56 | 58.47087 | -136.15501 | 29216 ft | 385 kts | 298° |
| 2026-04-21 09:56 | 58.48494 | -136.19898 | 29617 ft | 388 kts | 298° |
| 2026-04-21 09:57 | 58.49909 | -136.24323 | 29994 ft | 392 kts | 298° |
| 2026-04-21 09:57 | 58.51353 | -136.28845 | 30349 ft | 395 kts | 298° |
| 2026-04-21 09:57 | 58.52769 | -136.33283 | 30660 ft | 399 kts | 298° |
| 2026-04-21 09:57 | 58.54221 | -136.37845 | 30848 ft | 405 kts | 298° |
| 2026-04-21 09:58 | 58.55692 | -136.42482 | 31084 ft | 409 kts | 298° |
| 2026-04-21 09:58 | 58.57173 | -136.47158 | 31374 ft | 411 kts | 298° |
| 2026-04-21 09:58 | 58.58658 | -136.51856 | 31717 ft | 412 kts | 298° |
| 2026-04-21 09:58 | 58.60133 | -136.56533 | 32244 ft | 408 kts | 298° |
| 2026-04-21 09:59 | 58.61591 | -136.61161 | 32817 ft | 403 kts | 298° |
| 2026-04-21 09:59 | 58.63029 | -136.65740 | 33387 ft | 398 kts | 298° |
| 2026-04-21 09:59 | 58.64448 | -136.70267 | 33956 ft | 393 kts | 298° |
| 2026-04-21 09:59 | 58.65846 | -136.74738 | 34527 ft | 388 kts | 298° |
| 2026-04-21 10:00 | 58.67225 | -136.79154 | 35032 ft | 385 kts | 298° |
| 2026-04-21 10:00 | 58.68615 | -136.83620 | 35062 ft | 394 kts | 298° |
| 2026-04-21 10:00 | 58.71504 | -136.92922 | 35065 ft | 411 kts | 298° |
| 2026-04-21 10:01 | 58.74454 | -137.02438 | 35061 ft | 421 kts | 298° |
| 2026-04-21 10:01 | 58.77443 | -137.12122 | 35274 ft | 419 kts | 298° |
| 2026-04-21 10:02 | 58.80417 | -137.21812 | 35766 ft | 420 kts | 298° |
| 2026-04-21 10:02 | 58.81902 | -137.26664 | 36020 ft | 420 kts | 298° |
| 2026-04-21 10:03 | 58.84889 | -137.36451 | 36044 ft | 423 kts | 298° |
| 2026-04-21 10:03 | 58.87854 | -137.46205 | 36044 ft | 419 kts | 298° |
| 2026-04-21 10:04 | 58.90790 | -137.55912 | 36043 ft | 418 kts | 298° |
| 2026-04-21 10:04 | 58.93724 | -137.65650 | 36043 ft | 419 kts | 298° |
| 2026-04-21 10:05 | 58.96651 | -137.75407 | 36039 ft | 419 kts | 298° |
| 2026-04-21 10:05 | 58.99569 | -137.85170 | 36035 ft | 418 kts | 298° |
| 2026-04-21 10:06 | 59.02478 | -137.94936 | 36031 ft | 418 kts | 298° |
| 2026-04-21 10:06 | 59.05380 | -138.04732 | 36031 ft | 418 kts | 298° |
| 2026-04-21 10:07 | 59.08274 | -138.14540 | 36026 ft | 418 kts | 298° |
| 2026-04-21 10:07 | 59.11161 | -138.24364 | 36022 ft | 418 kts | 298° |
| 2026-04-21 10:08 | 59.14039 | -138.34204 | 36019 ft | 418 kts | 298° |
| 2026-04-21 10:08 | 59.16911 | -138.44059 | 36016 ft | 418 kts | 298° |
| 2026-04-21 10:09 | 59.19773 | -138.53927 | 36012 ft | 418 kts | 298° |
| 2026-04-21 10:09 | 59.22628 | -138.63809 | 36009 ft | 418 kts | 298° |
| 2026-04-21 10:10 | 59.25474 | -138.73704 | 36008 ft | 419 kts | 298° |
| 2026-04-21 10:10 | 59.28343 | -138.83724 | 36006 ft | 419 kts | 298° |
| 2026-04-21 10:11 | 59.31178 | -138.93667 | 36003 ft | 419 kts | 297° |
| 2026-04-21 10:11 | 59.33532 | -139.01955 | 36000 ft | 419 kts | 297° |
| 2026-04-21 10:12 | 59.36811 | -139.13553 | 35994 ft | 419 kts | 297° |
| 2026-04-21 10:12 | 59.39170 | -139.21932 | 35992 ft | 419 kts | 297° |
| 2026-04-21 10:13 | 59.41978 | -139.31945 | 35993 ft | 419 kts | 297° |
| 2026-04-21 10:13 | 59.44768 | -139.41965 | 35993 ft | 418 kts | 297° |
| 2026-04-21 10:14 | 59.47560 | -139.52012 | 35994 ft | 419 kts | 297° |
| 2026-04-21 10:14 | 59.50346 | -139.62084 | 35995 ft | 420 kts | 297° |
| 2026-04-21 10:15 | 59.52460 | -139.72738 | 35994 ft | 418 kts | 288° |
| 2026-04-21 10:15 | 59.54294 | -139.83604 | 35993 ft | 418 kts | 288° |
| 2026-04-21 10:16 | 59.56121 | -139.94510 | 36006 ft | 419 kts | 288° |
| 2026-04-21 10:16 | 59.57950 | -140.05412 | 35995 ft | 418 kts | 288° |
| 2026-04-21 10:17 | 59.59765 | -140.16320 | 35993 ft | 418 kts | 288° |
| 2026-04-21 10:17 | 59.61567 | -140.27232 | 35990 ft | 418 kts | 287° |
| 2026-04-21 10:18 | 59.63365 | -140.38169 | 35991 ft | 417 kts | 287° |
| 2026-04-21 10:18 | 59.65147 | -140.49077 | 35986 ft | 417 kts | 287° |
| 2026-04-21 10:19 | 59.66920 | -140.60004 | 35983 ft | 417 kts | 287° |
| 2026-04-21 10:19 | 59.68681 | -140.70922 | 35979 ft | 416 kts | 287° |
| 2026-04-21 10:20 | 59.70431 | -140.81841 | 35977 ft | 416 kts | 287° |
| 2026-04-21 10:20 | 59.72169 | -140.92774 | 35974 ft | 416 kts | 287° |
| 2026-04-21 10:21 | 59.73894 | -141.03721 | 35971 ft | 416 kts | 287° |
| 2026-04-21 10:21 | 59.75619 | -141.14662 | 35967 ft | 416 kts | 287° |
| 2026-04-21 10:22 | 59.77334 | -141.25628 | 35964 ft | 416 kts | 287° |
| 2026-04-21 10:22 | 59.79038 | -141.36606 | 35961 ft | 416 kts | 286° |
| 2026-04-21 10:23 | 59.80734 | -141.47596 | 35959 ft | 416 kts | 286° |
| 2026-04-21 10:23 | 59.82422 | -141.58596 | 35956 ft | 416 kts | 286° |
| 2026-04-21 10:24 | 59.84099 | -141.69610 | 35954 ft | 416 kts | 286° |
| 2026-04-21 10:24 | 59.85770 | -141.80646 | 35951 ft | 417 kts | 286° |
| 2026-04-21 10:25 | 59.87445 | -141.91788 | 35950 ft | 418 kts | 286° |
| 2026-04-21 10:25 | 59.89100 | -142.02864 | 35970 ft | 417 kts | 286° |
| 2026-04-21 10:26 | 59.90745 | -142.13947 | 35980 ft | 417 kts | 286° |
| 2026-04-21 10:26 | 59.92381 | -142.25049 | 35982 ft | 417 kts | 286° |
| 2026-04-21 10:27 | 59.94007 | -142.36149 | 35983 ft | 417 kts | 286° |
| 2026-04-21 10:27 | 59.95620 | -142.47241 | 35982 ft | 416 kts | 285° |
| 2026-04-21 10:28 | 59.97223 | -142.58331 | 35982 ft | 416 kts | 285° |
| 2026-04-21 10:28 | 59.98815 | -142.69426 | 35982 ft | 415 kts | 285° |
| 2026-04-21 10:29 | 60.00394 | -142.80507 | 35982 ft | 415 kts | 285° |
| 2026-04-21 10:29 | 60.01972 | -142.91659 | 35984 ft | 419 kts | 285° |
| 2026-04-21 10:30 | 60.03550 | -143.02884 | 35984 ft | 419 kts | 285° |
| 2026-04-21 10:30 | 60.05112 | -143.14081 | 35983 ft | 417 kts | 285° |
| 2026-04-21 10:31 | 60.06659 | -143.25240 | 35984 ft | 416 kts | 285° |
| 2026-04-21 10:31 | 60.08195 | -143.36399 | 35985 ft | 415 kts | 285° |
| 2026-04-21 10:32 | 60.09719 | -143.47553 | 35985 ft | 414 kts | 285° |
| 2026-04-21 10:32 | 60.11231 | -143.58692 | 35986 ft | 414 kts | 285° |
| 2026-04-21 10:33 | 60.12733 | -143.69837 | 35987 ft | 414 kts | 284° |
| 2026-04-21 10:33 | 60.14226 | -143.80996 | 35987 ft | 414 kts | 284° |
| 2026-04-21 10:34 | 60.15716 | -143.92220 | 35989 ft | 413 kts | 284° |
| 2026-04-21 10:34 | 60.17176 | -144.03292 | 35989 ft | 413 kts | 284° |
| 2026-04-21 10:35 | 60.18646 | -144.14524 | 35990 ft | 413 kts | 284° |
| 2026-04-21 10:35 | 60.20098 | -144.25697 | 35991 ft | 413 kts | 284° |
| 2026-04-21 10:36 | 60.21542 | -144.36890 | 35991 ft | 414 kts | 284° |
| 2026-04-21 10:36 | 60.22979 | -144.48116 | 35991 ft | 414 kts | 284° |
| 2026-04-21 10:37 | 60.24407 | -144.59365 | 35992 ft | 415 kts | 284° |
| 2026-04-21 10:37 | 60.25826 | -144.70634 | 35993 ft | 415 kts | 284° |
| 2026-04-21 10:38 | 60.27242 | -144.81912 | 35993 ft | 416 kts | 284° |
| 2026-04-21 10:38 | 60.28635 | -144.93144 | 35994 ft | 416 kts | 284° |
| 2026-04-21 10:39 | 60.30030 | -145.04464 | 35999 ft | 416 kts | 283° |
| 2026-04-21 10:39 | 60.31413 | -145.15776 | 35995 ft | 414 kts | 283° |
| 2026-04-21 10:40 | 60.32778 | -145.27059 | 35995 ft | 414 kts | 283° |
| 2026-04-21 10:40 | 60.34142 | -145.38359 | 35995 ft | 414 kts | 283° |
| 2026-04-21 10:41 | 60.35494 | -145.49672 | 35999 ft | 414 kts | 283° |
| 2026-04-21 10:41 | 60.36832 | -145.60989 | 35999 ft | 413 kts | 283° |
| 2026-04-21 10:42 | 60.38152 | -145.72210 | 36001 ft | 413 kts | 283° |
| 2026-04-21 10:42 | 60.39470 | -145.83513 | 36001 ft | 413 kts | 283° |
| 2026-04-21 10:43 | 60.40777 | -145.94826 | 36007 ft | 413 kts | 283° |
| 2026-04-21 10:43 | 60.42075 | -146.06138 | 36009 ft | 413 kts | 283° |
| 2026-04-21 10:44 | 60.43366 | -146.17484 | 36012 ft | 413 kts | 283° |
| 2026-04-21 10:44 | 60.44644 | -146.28814 | 36014 ft | 413 kts | 283° |
| 2026-04-21 10:45 | 60.45905 | -146.40090 | 36017 ft | 413 kts | 282° |
| 2026-04-21 10:45 | 60.47162 | -146.51454 | 36016 ft | 413 kts | 282° |
| 2026-04-21 10:46 | 60.49110 | -146.62386 | 36016 ft | 416 kts | 299° |
| 2026-04-21 10:46 | 60.52507 | -146.71959 | 36017 ft | 419 kts | 304° |
| 2026-04-21 10:47 | 60.56015 | -146.81409 | 36015 ft | 419 kts | 304° |
| 2026-04-21 10:47 | 60.59492 | -146.90903 | 36018 ft | 418 kts | 304° |
| 2026-04-21 10:48 | 60.62944 | -147.00418 | 36016 ft | 418 kts | 304° |
| 2026-04-21 10:48 | 60.66392 | -147.09966 | 36002 ft | 419 kts | 303° |
| 2026-04-21 10:48 | 60.68089 | -147.14795 | 35397 ft | 417 kts | 303° |
| 2026-04-21 10:49 | 60.69761 | -147.19596 | 34848 ft | 412 kts | 303° |
| 2026-04-21 10:49 | 60.71415 | -147.24337 | 34324 ft | 407 kts | 303° |
| 2026-04-21 10:49 | 60.73055 | -147.29012 | 33804 ft | 402 kts | 303° |
| 2026-04-21 10:49 | 60.74678 | -147.33631 | 33290 ft | 398 kts | 303° |
| 2026-04-21 10:50 | 60.75763 | -147.36728 | 32945 ft | 395 kts | 303° |
| 2026-04-21 10:50 | 60.77857 | -147.42734 | 32257 ft | 389 kts | 303° |
| 2026-04-21 10:50 | 60.79418 | -147.47230 | 31732 ft | 385 kts | 303° |
| 2026-04-21 10:50 | 60.80961 | -147.51682 | 31229 ft | 381 kts | 302° |
| 2026-04-21 10:51 | 60.82487 | -147.56086 | 30740 ft | 377 kts | 302° |
| 2026-04-21 10:51 | 60.83995 | -147.60443 | 30258 ft | 372 kts | 302° |
| 2026-04-21 10:51 | 60.85484 | -147.64754 | 29782 ft | 368 kts | 302° |
| 2026-04-21 10:51 | 60.86476 | -147.67634 | 29465 ft | 365 kts | 302° |
| 2026-04-21 10:52 | 60.87934 | -147.71872 | 28999 ft | 361 kts | 302° |
| 2026-04-21 10:52 | 60.89375 | -147.76067 | 28538 ft | 357 kts | 302° |
| 2026-04-21 10:52 | 60.90799 | -147.80221 | 28082 ft | 354 kts | 302° |
| 2026-04-21 10:52 | 60.92206 | -147.84335 | 27630 ft | 350 kts | 302° |
| 2026-04-21 10:53 | 60.93599 | -147.88409 | 27188 ft | 346 kts | 302° |
| 2026-04-21 10:53 | 60.94975 | -147.92447 | 26742 ft | 343 kts | 302° |
| 2026-04-21 10:53 | 60.96337 | -147.96448 | 26305 ft | 340 kts | 302° |
| 2026-04-21 10:53 | 60.97684 | -148.00411 | 25871 ft | 336 kts | 302° |
| 2026-04-21 10:54 | 60.99016 | -148.04337 | 25442 ft | 333 kts | 302° |
| 2026-04-21 10:54 | 61.00333 | -148.08225 | 25018 ft | 329 kts | 302° |
| 2026-04-21 10:54 | 61.01635 | -148.12076 | 24598 ft | 326 kts | 302° |
| 2026-04-21 10:54 | 61.02923 | -148.15890 | 24183 ft | 322 kts | 302° |
| 2026-04-21 10:55 | 61.04212 | -148.19716 | 23765 ft | 319 kts | 302° |
| 2026-04-21 10:55 | 61.05471 | -148.23456 | 23358 ft | 316 kts | 302° |
| 2026-04-21 10:55 | 61.06712 | -148.27153 | 22956 ft | 312 kts | 302° |
| 2026-04-21 10:55 | 61.07944 | -148.30825 | 22556 ft | 309 kts | 301° |
| 2026-04-21 10:56 | 61.09162 | -148.34462 | 22161 ft | 306 kts | 301° |
| 2026-04-21 10:56 | 61.10364 | -148.38066 | 21772 ft | 303 kts | 301° |
| 2026-04-21 10:56 | 61.11554 | -148.41633 | 21383 ft | 300 kts | 301° |
| 2026-04-21 10:56 | 61.12730 | -148.45160 | 21000 ft | 296 kts | 301° |
| 2026-04-21 10:57 | 61.13851 | -148.48695 | 20625 ft | 291 kts | 296° |
| 2026-04-21 10:57 | 61.14635 | -148.52501 | 20267 ft | 286 kts | 289° |
| 2026-04-21 10:57 | 61.15330 | -148.56408 | 19890 ft | 296 kts | 289° |
| 2026-04-21 10:57 | 61.16038 | -148.60419 | 19508 ft | 296 kts | 289° |
| 2026-04-21 10:58 | 61.16738 | -148.64393 | 19130 ft | 291 kts | 289° |
| 2026-04-21 10:58 | 61.17426 | -148.68309 | 18758 ft | 287 kts | 289° |
| 2026-04-21 10:58 | 61.18103 | -148.72165 | 18391 ft | 282 kts | 288° |
| 2026-04-21 10:58 | 61.18768 | -148.75964 | 18032 ft | 279 kts | 288° |
| 2026-04-21 10:59 | 61.19434 | -148.79782 | 17675 ft | 284 kts | 288° |
| 2026-04-21 10:59 | 61.20108 | -148.83656 | 17306 ft | 287 kts | 288° |
| 2026-04-21 10:59 | 61.20782 | -148.87530 | 16957 ft | 287 kts | 288° |
| 2026-04-21 10:59 | 61.21461 | -148.91436 | 16600 ft | 287 kts | 288° |
| 2026-04-21 11:00 | 61.22132 | -148.95324 | 16237 ft | 287 kts | 288° |
| 2026-04-21 11:00 | 61.22800 | -148.99195 | 15872 ft | 282 kts | 288° |
| 2026-04-21 11:00 | 61.23456 | -149.02989 | 15512 ft | 276 kts | 288° |
| 2026-04-21 11:00 | 61.24099 | -149.06722 | 15159 ft | 274 kts | 288° |
| 2026-04-21 11:01 | 61.24509 | -149.10616 | 14834 ft | 281 kts | 277° |
| 2026-04-21 11:01 | 61.24766 | -149.14652 | 14498 ft | 282 kts | 277° |
| 2026-04-21 11:01 | 61.25012 | -149.18703 | 14161 ft | 283 kts | 277° |
| 2026-04-21 11:02 | 61.25495 | -149.26837 | 13475 ft | 284 kts | 277° |
| 2026-04-21 11:02 | 61.25737 | -149.30923 | 13136 ft | 285 kts | 276° |
| 2026-04-21 11:02 | 61.25979 | -149.35008 | 12793 ft | 284 kts | 276° |
| 2026-04-21 11:02 | 61.26219 | -149.39041 | 12453 ft | 279 kts | 276° |
| 2026-04-21 11:03 | 61.26455 | -149.43016 | 12122 ft | 276 kts | 276° |
| 2026-04-21 11:03 | 61.26688 | -149.46966 | 11791 ft | 275 kts | 276° |
| 2026-04-21 11:03 | 61.26915 | -149.50910 | 11456 ft | 275 kts | 276° |
| 2026-04-21 11:03 | 61.27136 | -149.54809 | 11127 ft | 276 kts | 276° |
| 2026-04-21 11:04 | 61.27363 | -149.58831 | 10786 ft | 277 kts | 276° |
| 2026-04-21 11:04 | 61.27588 | -149.62810 | 10449 ft | 278 kts | 276° |
| 2026-04-21 11:04 | 61.27812 | -149.66756 | 10146 ft | 278 kts | 275° |
| 2026-04-21 11:04 | 61.28119 | -149.70723 | 9859 ft | 279 kts | 285° |
| 2026-04-21 11:05 | 61.28957 | -149.74372 | 9587 ft | 281 kts | 298° |
| 2026-04-21 11:05 | 61.29965 | -149.77872 | 9309 ft | 283 kts | 299° |
| 2026-04-21 11:05 | 61.30991 | -149.81369 | 9035 ft | 284 kts | 299° |
| 2026-04-21 11:05 | 61.32017 | -149.84852 | 8759 ft | 280 kts | 299° |
| 2026-04-21 11:06 | 61.33017 | -149.88253 | 8506 ft | 271 kts | 299° |
| 2026-04-21 11:06 | 61.33990 | -149.91582 | 8254 ft | 267 kts | 298° |
| 2026-04-21 11:06 | 61.35146 | -149.94577 | 8061 ft | 267 kts | 317° |
| 2026-04-21 11:06 | 61.36752 | -149.96533 | 8050 ft | 270 kts | 339° |
| 2026-04-21 11:07 | 61.38505 | -149.97598 | 8048 ft | 261 kts | 343° |
| 2026-04-21 11:07 | 61.40215 | -149.98636 | 8033 ft | 252 kts | 341° |
| 2026-04-21 11:07 | 61.41873 | -149.99689 | 8029 ft | 246 kts | 341° |
| 2026-04-21 11:07 | 61.43366 | -150.01267 | 7925 ft | 238 kts | 318° |
| 2026-04-21 11:08 | 61.44282 | -150.04043 | 7527 ft | 231 kts | 285° |
| 2026-04-21 11:08 | 61.44397 | -150.07338 | 7022 ft | 231 kts | 258° |
| 2026-04-21 11:08 | 61.43766 | -150.10426 | 6401 ft | 236 kts | 231° |
| 2026-04-21 11:08 | 61.42488 | -150.12578 | 5749 ft | 242 kts | 204° |
| 2026-04-21 11:09 | 61.40818 | -150.13159 | 5061 ft | 251 kts | 175° |
| 2026-04-21 11:09 | 61.39091 | -150.12331 | 4377 ft | 259 kts | 165° |
| 2026-04-21 11:09 | 61.37401 | -150.11319 | 3915 ft | 240 kts | 165° |
| 2026-04-21 11:09 | 61.35896 | -150.10445 | 3591 ft | 212 kts | 165° |
| 2026-04-21 11:10 | 61.34543 | -150.09677 | 3304 ft | 194 kts | 166° |
| 2026-04-21 11:10 | 61.33272 | -150.08957 | 3035 ft | 185 kts | 165° |
| 2026-04-21 11:10 | 61.32053 | -150.08267 | 2780 ft | 178 kts | 165° |
| 2026-04-21 11:10 | 61.30919 | -150.07626 | 2534 ft | 159 kts | 165° |
| 2026-04-21 11:11 | 61.29885 | -150.07041 | 2326 ft | 149 kts | 165° |
| 2026-04-21 11:11 | 61.28910 | -150.06490 | 2115 ft | 142 kts | 165° |
| 2026-04-21 11:11 | 61.27969 | -150.05960 | 1923 ft | 138 kts | 165° |
| 2026-04-21 11:11 | 61.27051 | -150.05442 | 1729 ft | 136 kts | 165° |
| 2026-04-21 11:12 | 61.26143 | -150.04931 | 1541 ft | 134 kts | 165° |
| 2026-04-21 11:12 | 61.25242 | -150.04422 | 1357 ft | 136 kts | 165° |
| 2026-04-21 11:12 | 61.24332 | -150.03910 | 1179 ft | 134 kts | 165° |
| 2026-04-21 11:12 | 61.23443 | -150.03398 | 1017 ft | 133 kts | 165° |
| 2026-04-21 11:13 | 61.22538 | -150.02890 | 783 ft | 137 kts | 164° |
| 2026-04-21 11:13 | 61.21623 | -150.02368 | 592 ft | 137 kts | 165° |
| 2026-04-21 11:13 | 61.20704 | -150.01851 | 384 ft | 138 kts | 165° |
| 2026-04-21 11:13 | 61.19771 | -150.01331 | 200 ft | 137 kts | 166° |
| 2026-04-21 11:14 | 61.18885 | -150.00830 | 162 ft | 118 kts | 166° |
| 2026-04-21 11:14 | 61.18319 | -150.00534 | 161 ft | 51 kts | 165° |
| 2026-04-21 11:14 | 61.17984 | -150.00324 | 161 ft | 47 kts | 154° |
| 2026-04-21 11:14 | 61.17780 | -150.00007 | 161 ft | 28 kts | 135° |
| 2026-04-21 11:15 | 61.17683 | -149.99803 | 161 ft | 10 kts | 131° |
| 2026-04-21 11:15 | 61.17666 | -149.99731 | 161 ft | 3 kts | 96° |
| 2026-04-21 11:15 | 61.17668 | -149.99694 | 161 ft | 0 kts | 81° |
| 2026-04-21 11:16 | 61.17668 | -149.99693 | 161 ft | 0 kts | 81° |
| 2026-04-21 11:16 | 61.17673 | -149.99641 | 161 ft | 8 kts | 77° |
| 2026-04-21 11:16 | 61.17687 | -149.99525 | 161 ft | 8 kts | 72° |
| 2026-04-21 11:16 | 61.17703 | -149.99432 | 161 ft | 6 kts | 70° |
| 2026-04-21 11:17 | 61.17716 | -149.99358 | 161 ft | 7 kts | 69° |
| 2026-04-21 11:17 | 61.17759 | -149.99262 | 161 ft | 10 kts | 8° |
| 2026-04-21 11:17 | 61.17822 | -149.99273 | 161 ft | 9 kts | 30° |
| 2026-04-21 11:17 | 61.17829 | -149.99211 | 161 ft | 3 kts | 121° |
| 2026-04-21 11:18 | 61.17779 | -149.99157 | 161 ft | 13 kts | 156° |
| 2026-04-21 11:18 | 61.17694 | -149.99090 | 161 ft | 13 kts | 160° |
| 2026-04-21 11:18 | 61.17664 | -149.98972 | 161 ft | 11 kts | 71° |
| 2026-04-21 11:18 | 61.17681 | -149.98809 | 161 ft | 12 kts | 107° |
| 2026-04-21 11:19 | 61.17614 | -149.98706 | 161 ft | 12 kts | 158° |
| 2026-04-21 11:19 | 61.17558 | -149.98660 | 161 ft | 7 kts | 159° |
| 2026-04-21 11:19 | 61.17510 | -149.98607 | 161 ft | 10 kts | 131° |
| 2026-04-21 11:19 | 61.17501 | -149.98507 | 161 ft | 4 kts | 84° |
| 2026-04-21 11:20 | 61.17504 | -149.98452 | 161 ft | 2 kts | 84° |
| 2026-04-21 11:20 | 61.17504 | -149.98441 | 161 ft | 0 kts | 83° |